FQMA/MPM METAR and TAF weather

Enter ICAO airport designator
Station Type Date Time Source
FQMA METAR 2019/06/18 17:00 UTC NOAA

FQMA 181700Z VRB02KT 9999 FEW020 17/13 Q1027 NOSIG RMK FU


Station Type Date Time Source
FQMA Decoded METAR 2019/06/18 17:00 UTC NOAA

Maputo / Mavalane, Mozambique (FQMA) 25-55S 032-34E 44M
Jun 18, 2019 - 01:00 PM EDT / 2019.06.18 1700 UTC
Wind: Variable at 2 MPH (2 KT):0
Visibility: greater than 7 mile(s):0
Sky conditions: mostly clear
Temperature: 62 F (17 C)
Dew Point: 55 F (13 C)
Relative Humidity: 77%
Pressure (altimeter): 30.33 in. Hg (1027 hPa)
ob: FQMA 181700Z VRB02KT 9999 FEW020 17/13 Q1027 NOSIG RMK FU
cycle: 17

Station Type Date Time Source
FQMA TAF 2019/06/18 18:22 UTC NOAA

TAF FQMA 181600Z 1818/1924 22008KT 9999 FEW025 TX27/1913Z TN12/1903Z PROB30
TEMPO 1900/1904 3000 BR NSC
BECMG 1906/1908 17008KT
BECMG 1912/1914 10010KT

Example: see airport list